New Orleans, Louisiana
Traffic Map
Current Weather Conditions
New Orleans, Louisiana
Clear
Clear
-2°
Feels Like: -8°
Wind Chill: -8° Ceiling: Unl
Heat Index: -2° Visibility: 10mi
Dew Point: -9° Wind: 14mph
Humidity: 58% Direction: 40° (NE)
Pressure: 30.6in Gusts: 0mph
Raw Report DataKNEW 180753Z 04012KT 10SM CLR M02/M09 A3060 RMK AO2 SLP355 T10171089
Traffic Incident Summary
Active as of:
Severity:
Category:
InformationThere was an issue retrieving the traffic information for this location. Please try a different location or try again shortly.
Advertisements